createdAt,value
2023-04-13T00:00:33.922Z,970.00
2023-04-13T00:01:33.972Z,970.00
2023-04-13T00:02:34.081Z,969.00
2023-04-13T00:03:34.196Z,967.00
2023-04-13T00:04:34.001Z,969.00
2023-04-13T00:05:34.077Z,969.00
2023-04-13T00:06:34.103Z,971.00
2023-04-13T00:07:34.054Z,969.00
2023-04-13T00:08:34.104Z,972.00
2023-04-13T00:09:34.113Z,970.00
2023-04-13T00:10:34.147Z,970.00
2023-04-13T00:11:34.181Z,969.00
2023-04-13T00:12:34.154Z,968.00
2023-04-13T00:13:34.206Z,966.00
2023-04-13T00:14:34.194Z,964.00
2023-04-13T00:15:34.257Z,965.00
2023-04-13T00:16:34.305Z,963.00
2023-04-13T00:17:34.310Z,960.00
2023-04-13T00:18:34.296Z,960.00
2023-04-13T00:19:34.319Z,959.00
2023-04-13T00:20:34.360Z,958.00
2023-04-13T00:21:34.365Z,959.00
2023-04-13T00:22:34.431Z,956.00
2023-04-13T00:23:34.396Z,957.00
2023-04-13T00:24:34.440Z,958.00
2023-04-13T00:25:34.434Z,958.00
2023-04-13T00:26:34.448Z,956.00
2023-04-13T00:27:34.473Z,957.00
2023-04-13T00:28:34.485Z,960.00
2023-04-13T00:29:34.513Z,959.00
2023-04-13T00:30:34.640Z,956.00
2023-04-13T00:31:34.584Z,954.00
2023-04-13T00:32:34.577Z,952.00
2023-04-13T00:33:34.564Z,954.00
2023-04-13T00:34:34.611Z,956.00
2023-04-13T00:35:34.594Z,956.00
2023-04-13T00:36:34.594Z,955.00
2023-04-13T00:37:34.645Z,954.00
2023-04-13T00:38:34.703Z,953.00
2023-04-13T00:39:34.655Z,954.00
2023-04-13T00:40:34.665Z,953.00
2023-04-13T00:41:34.706Z,955.00
2023-04-13T00:42:34.724Z,953.00
2023-04-13T00:43:34.755Z,950.00
2023-04-13T00:44:34.747Z,949.00
2023-04-13T00:45:34.758Z,949.00
2023-04-13T00:46:34.867Z,950.00
2023-04-13T00:47:34.818Z,951.00
2023-04-13T00:48:35.041Z,950.00
2023-04-13T00:49:34.885Z,950.00
2023-04-13T00:50:34.862Z,951.00
2023-04-13T00:51:34.929Z,950.00
2023-04-13T00:52:34.927Z,950.00
2023-04-13T00:53:34.928Z,950.00
2023-04-13T00:54:34.939Z,952.00
2023-04-13T00:55:34.971Z,953.00
2023-04-13T00:56:35.013Z,948.00
2023-04-13T00:57:35.063Z,947.00
2023-04-13T00:58:35.046Z,945.00
2023-04-13T00:59:35.076Z,949.00
2023-04-13T01:00:35.087Z,952.00
2023-04-13T01:01:35.150Z,952.00
2023-04-13T01:02:35.175Z,953.00
2023-04-13T01:03:35.182Z,951.00
2023-04-13T01:04:35.222Z,951.00
2023-04-13T01:05:35.186Z,951.00
2023-04-13T01:06:35.185Z,951.00
2023-04-13T01:07:35.208Z,952.00
2023-04-13T01:08:35.265Z,952.00
2023-04-13T01:09:35.346Z,950.00
2023-04-13T01:10:35.278Z,951.00
2023-04-13T01:11:35.295Z,952.00
2023-04-13T01:12:35.310Z,950.00
2023-04-13T01:13:35.380Z,948.00
2023-04-13T01:14:35.380Z,945.00
2023-04-13T01:15:35.400Z,945.00
2023-04-13T01:16:35.417Z,945.00
2023-04-13T01:17:35.445Z,948.00
2023-04-13T01:18:35.549Z,950.00
2023-04-13T01:19:35.494Z,949.00
2023-04-13T01:20:35.557Z,948.00
2023-04-13T01:21:35.512Z,947.00
2023-04-13T01:22:35.559Z,946.00
2023-04-13T01:23:35.610Z,946.00
2023-04-13T01:24:35.592Z,941.00
2023-04-13T01:25:35.609Z,942.00
2023-04-13T01:26:35.676Z,941.00
2023-04-13T01:27:35.649Z,942.00
2023-04-13T01:28:36.121Z,944.00
2023-04-13T01:29:35.721Z,943.00
2023-04-13T01:30:35.795Z,943.00
2023-04-13T01:31:35.816Z,945.00
2023-04-13T01:32:35.780Z,946.00
2023-04-13T01:33:35.796Z,943.00
2023-04-13T01:34:35.816Z,944.00
2023-04-13T01:35:35.826Z,939.00
2023-04-13T01:36:35.931Z,940.00
2023-04-13T01:37:35.860Z,937.00
2023-04-13T01:38:35.931Z,941.00
2023-04-13T01:39:35.893Z,945.00
2023-04-13T01:40:35.927Z,949.00
2023-04-13T01:41:35.944Z,949.00
2023-04-13T01:42:36.016Z,952.00
2023-04-13T01:43:35.993Z,951.00
2023-04-13T01:44:35.997Z,950.00
2023-04-13T01:45:36.032Z,949.00
2023-04-13T01:46:36.092Z,948.00
2023-04-13T01:47:36.141Z,948.00
2023-04-13T01:48:36.125Z,946.00
2023-04-13T01:49:36.108Z,948.00
2023-04-13T01:50:36.160Z,948.00
2023-04-13T01:51:36.266Z,946.00
2023-04-13T01:52:36.202Z,947.00
2023-04-13T01:53:36.206Z,947.00
2023-04-13T01:54:36.227Z,949.00
2023-04-13T01:55:36.275Z,946.00
2023-04-13T01:56:36.319Z,951.00
2023-04-13T01:57:36.283Z,949.00
2023-04-13T01:58:36.376Z,949.00
2023-04-13T01:59:36.427Z,950.00
2023-04-13T02:00:36.489Z,947.00
2023-04-13T02:01:36.415Z,946.00
2023-04-13T02:02:36.621Z,945.00
2023-04-13T02:03:36.539Z,943.00
2023-04-13T02:04:36.442Z,941.00
2023-04-13T02:05:36.489Z,938.00
2023-04-13T02:06:36.517Z,941.00
2023-04-13T02:07:36.533Z,940.00
2023-04-13T02:08:36.543Z,939.00
2023-04-13T02:09:36.559Z,938.00
2023-04-13T02:10:36.575Z,939.00
2023-04-13T02:11:36.629Z,939.00
2023-04-13T02:12:36.630Z,942.00
2023-04-13T02:13:36.649Z,938.00
2023-04-13T02:14:36.681Z,938.00
2023-04-13T02:15:36.710Z,940.00
2023-04-13T02:16:36.754Z,942.00
2023-04-13T02:17:36.762Z,939.00
2023-04-13T02:18:36.772Z,941.00
2023-04-13T02:19:36.792Z,941.00
2023-04-13T02:20:36.814Z,939.00
2023-04-13T02:21:36.849Z,939.00
2023-04-13T02:22:36.845Z,939.00
2023-04-13T02:23:36.881Z,941.00
2023-04-13T02:24:36.897Z,940.00
2023-04-13T02:25:36.908Z,937.00
2023-04-13T02:26:36.921Z,936.00
2023-04-13T02:27:36.971Z,932.00
2023-04-13T02:28:37.049Z,931.00
2023-04-13T02:29:36.993Z,930.00
2023-04-13T02:30:37.031Z,933.00
2023-04-13T02:31:37.112Z,930.00
2023-04-13T02:32:37.135Z,930.00
2023-04-13T02:33:37.111Z,931.00
2023-04-13T02:34:37.132Z,933.00
2023-04-13T02:35:37.151Z,937.00
2023-04-13T02:36:37.177Z,937.00
2023-04-13T02:37:37.191Z,936.00
2023-04-13T02:38:37.234Z,934.00
2023-04-13T02:39:37.231Z,929.00
2023-04-13T02:40:37.234Z,926.00
2023-04-13T02:41:37.281Z,924.00
2023-04-13T02:42:37.280Z,924.00
2023-04-13T02:43:37.300Z,924.00
2023-04-13T02:44:37.330Z,924.00
2023-04-13T02:45:37.421Z,925.00
2023-04-13T02:46:37.412Z,919.00
2023-04-13T02:47:37.459Z,921.00
2023-04-13T02:48:37.449Z,922.00
2023-04-13T02:49:37.465Z,921.00
2023-04-13T02:50:37.478Z,922.00
2023-04-13T02:51:37.486Z,921.00
2023-04-13T02:52:37.535Z,922.00
2023-04-13T02:53:37.525Z,924.00
2023-04-13T02:54:37.559Z,926.00
2023-04-13T02:55:38.070Z,925.00
2023-04-13T02:56:37.625Z,924.00
2023-04-13T02:57:37.612Z,923.00
2023-04-13T02:58:37.679Z,927.00
2023-04-13T02:59:37.707Z,925.00
2023-04-13T03:00:37.703Z,923.00
2023-04-13T03:01:37.735Z,924.00
2023-04-13T03:02:37.882Z,923.00
2023-04-13T03:03:37.753Z,922.00
2023-04-13T03:04:37.837Z,920.00
2023-04-13T03:05:37.757Z,918.00
2023-04-13T03:06:37.802Z,920.00
2023-04-13T03:07:37.824Z,921.00
2023-04-13T03:08:37.846Z,923.00
2023-04-13T03:09:37.848Z,925.00
2023-04-13T03:10:37.876Z,924.00
2023-04-13T03:11:37.941Z,925.00
2023-04-13T03:12:37.905Z,923.00
2023-04-13T03:13:37.941Z,920.00
2023-04-13T03:14:37.977Z,921.00
2023-04-13T03:15:37.989Z,924.00
2023-04-13T03:16:38.085Z,927.00
2023-04-13T03:17:38.084Z,927.00
2023-04-13T03:18:38.064Z,928.00
2023-04-13T03:19:38.083Z,923.00
2023-04-13T03:20:38.108Z,922.00
2023-04-13T03:21:38.137Z,921.00
2023-04-13T03:22:38.153Z,920.00
2023-04-13T03:23:38.168Z,920.00
2023-04-13T03:24:38.201Z,918.00
2023-04-13T03:25:38.223Z,915.00
2023-04-13T03:26:38.256Z,916.00
2023-04-13T03:27:38.252Z,918.00
2023-04-13T03:28:38.267Z,919.00
2023-04-13T03:29:38.310Z,919.00
2023-04-13T03:30:38.322Z,919.00
2023-04-13T03:31:38.345Z,922.00
2023-04-13T03:32:38.403Z,917.00
2023-04-13T03:33:38.382Z,921.00
2023-04-13T03:34:38.412Z,920.00
2023-04-13T03:35:38.444Z,922.00
2023-04-13T03:36:38.449Z,923.00
2023-04-13T03:37:38.469Z,926.00
2023-04-13T03:38:38.508Z,927.00
2023-04-13T03:39:38.616Z,928.00
2023-04-13T03:40:38.548Z,928.00
2023-04-13T03:41:38.654Z,926.00
2023-04-13T03:42:38.621Z,926.00
2023-04-13T03:43:38.606Z,925.00
2023-04-13T03:44:38.641Z,927.00
2023-04-13T03:45:38.689Z,928.00
2023-04-13T03:46:38.734Z,931.00
2023-04-13T03:47:38.821Z,932.00
2023-04-13T03:48:38.741Z,928.00
2023-04-13T03:49:38.764Z,927.00
2023-04-13T03:50:38.792Z,929.00
2023-04-13T03:51:38.805Z,927.00
2023-04-13T03:52:38.837Z,929.00
2023-04-13T03:53:38.883Z,927.00
2023-04-13T03:54:38.877Z,925.00
2023-04-13T03:55:38.877Z,925.00
2023-04-13T03:56:38.953Z,922.00
2023-04-13T03:57:38.970Z,918.00
2023-04-13T03:58:38.980Z,917.00
2023-04-13T03:59:39.015Z,917.00
2023-04-13T04:00:39.013Z,918.00
2023-04-13T04:01:39.072Z,921.00
2023-04-13T04:02:39.247Z,918.00
2023-04-13T04:03:39.147Z,917.00
2023-04-13T04:04:39.108Z,919.00
2023-04-13T04:05:39.214Z,921.00
2023-04-13T04:06:39.124Z,921.00
2023-04-13T04:07:39.157Z,922.00
2023-04-13T04:08:39.156Z,924.00
2023-04-13T04:09:39.163Z,925.00
2023-04-13T04:10:39.213Z,923.00
2023-04-13T04:11:39.235Z,915.00
2023-04-13T04:12:39.239Z,915.00
2023-04-13T04:13:39.252Z,912.00
2023-04-13T04:14:39.287Z,911.00
2023-04-13T04:15:39.311Z,909.00
2023-04-13T04:16:39.393Z,910.00
2023-04-13T04:17:40.022Z,913.00
2023-04-13T04:18:39.398Z,912.00
2023-04-13T04:19:39.373Z,911.00
2023-04-13T04:20:39.381Z,911.00
2023-04-13T04:21:39.420Z,909.00
2023-04-13T04:22:39.432Z,909.00
2023-04-13T04:23:39.448Z,907.00
2023-04-13T04:24:39.467Z,907.00
2023-04-13T04:25:39.517Z,907.00
2023-04-13T04:26:39.535Z,909.00
2023-04-13T04:27:39.521Z,909.00
2023-04-13T04:28:39.557Z,905.00
2023-04-13T04:29:39.608Z,903.00
2023-04-13T04:30:39.635Z,905.00
2023-04-13T04:31:39.685Z,907.00
2023-04-13T04:32:39.722Z,907.00
2023-04-13T04:33:39.686Z,907.00
2023-04-13T04:34:39.703Z,903.00
2023-04-13T04:35:39.760Z,903.00
2023-04-13T04:36:39.801Z,902.00
2023-04-13T04:37:39.776Z,902.00
2023-04-13T04:38:39.794Z,902.00
2023-04-13T04:39:39.860Z,905.00
2023-04-13T04:40:39.886Z,904.00
2023-04-13T04:41:39.885Z,903.00
2023-04-13T04:42:39.924Z,903.00
2023-04-13T04:43:39.924Z,904.00
2023-04-13T04:44:39.951Z,907.00
2023-04-13T04:45:40.067Z,903.00
2023-04-13T04:46:39.981Z,903.00
2023-04-13T04:47:40.096Z,901.00
2023-04-13T04:48:40.013Z,902.00
2023-04-13T04:49:40.041Z,901.00
2023-04-13T04:50:40.064Z,902.00
2023-04-13T04:51:40.105Z,905.00
2023-04-13T04:52:40.168Z,903.00
2023-04-13T04:53:40.123Z,907.00
2023-04-13T04:54:40.129Z,906.00
2023-04-13T04:55:40.156Z,906.00
2023-04-13T04:56:40.177Z,904.00
2023-04-13T04:57:40.186Z,907.00
2023-04-13T04:58:40.199Z,908.00
2023-04-13T04:59:40.208Z,908.00
2023-04-13T05:00:40.211Z,908.00
2023-04-13T05:01:40.322Z,907.00
2023-04-13T05:02:40.424Z,904.00
2023-04-13T05:03:40.308Z,902.00
2023-04-13T05:04:40.338Z,904.00
2023-04-13T05:05:40.390Z,899.00
2023-04-13T05:06:41.306Z,895.00
2023-04-13T05:07:40.395Z,896.00
2023-04-13T05:08:40.418Z,894.00
2023-04-13T05:09:40.395Z,893.00
2023-04-13T05:10:40.401Z,896.00
2023-04-13T05:11:40.529Z,896.00
2023-04-13T05:12:40.438Z,894.00
2023-04-13T05:13:40.541Z,896.00
2023-04-13T05:14:40.580Z,899.00
2023-04-13T05:15:40.554Z,900.00
2023-04-13T05:16:40.734Z,900.00
2023-04-13T05:17:40.591Z,895.00
2023-04-13T05:18:40.630Z,891.00
2023-04-13T05:19:40.605Z,894.00
2023-04-13T05:20:40.650Z,895.00
2023-04-13T05:21:40.679Z,893.00
2023-04-13T05:22:40.664Z,894.00
2023-04-13T05:23:40.702Z,896.00
2023-04-13T05:24:40.691Z,896.00
2023-04-13T05:25:40.710Z,899.00
2023-04-13T05:26:41.153Z,899.00
2023-04-13T05:27:40.772Z,900.00
2023-04-13T05:28:40.772Z,899.00
2023-04-13T05:29:40.791Z,898.00
2023-04-13T05:30:40.808Z,900.00
2023-04-13T05:31:40.973Z,900.00
2023-04-13T05:32:40.994Z,902.00
2023-04-13T05:33:40.952Z,901.00
2023-04-13T05:34:40.958Z,904.00
2023-04-13T05:35:41.028Z,913.00
2023-04-13T05:36:41.190Z,920.00
2023-04-13T05:37:41.659Z,945.00
2023-04-13T05:38:40.990Z,968.00
2023-04-13T05:39:41.088Z,1258.00
2023-04-13T05:40:41.024Z,1194.00
2023-04-13T05:41:41.156Z,1070.00
2023-04-13T05:42:41.033Z,1152.00
2023-04-13T05:43:41.201Z,1161.00
2023-04-13T05:44:41.137Z,1150.00
2023-04-13T05:45:41.126Z,1286.00
2023-04-13T05:46:41.172Z,1261.00
2023-04-13T05:47:41.174Z,1262.00
2023-04-13T05:48:41.299Z,1280.00
2023-04-13T05:49:41.230Z,1318.00
2023-04-13T05:50:42.305Z,1339.00
2023-04-13T05:51:41.356Z,1405.00
2023-04-13T05:52:41.381Z,1428.00
2023-04-13T05:53:41.558Z,1445.00
2023-04-13T05:54:41.523Z,1468.00
2023-04-13T05:55:41.580Z,1607.00
2023-04-13T05:56:41.674Z,1650.00
2023-04-13T05:57:41.693Z,1637.00
2023-04-13T05:58:41.794Z,1622.00
2023-04-13T05:59:41.826Z,1620.00
2023-04-13T06:00:41.901Z,1630.00
2023-04-13T06:01:41.982Z,1700.00
2023-04-13T06:02:42.150Z,1722.00
2023-04-13T06:03:42.427Z,1740.00
2023-04-13T06:04:42.237Z,1752.00
2023-04-13T06:05:42.165Z,1771.00
2023-04-13T06:06:42.267Z,1832.00
2023-04-13T06:07:42.377Z,1844.00
2023-04-13T06:08:42.333Z,1940.00
2023-04-13T06:09:43.249Z,1931.00
2023-04-13T06:10:42.419Z,1935.00
2023-04-13T06:11:42.542Z,1959.00
2023-04-13T06:12:42.572Z,2001.00
2023-04-13T06:13:42.553Z,2010.00
2023-04-13T06:14:42.602Z,2034.00
2023-04-13T06:15:42.746Z,2076.00
2023-04-13T06:16:42.727Z,2095.00
2023-04-13T06:17:42.790Z,2108.00
2023-04-13T06:18:42.794Z,2132.00
2023-04-13T06:19:42.808Z,2216.00
2023-04-13T06:20:42.875Z,2225.00
2023-04-13T06:21:42.890Z,2265.00
2023-04-13T06:22:43.024Z,2305.00
2023-04-13T06:23:43.700Z,2318.00
2023-04-13T06:24:42.999Z,2329.00
2023-04-13T06:25:43.014Z,2357.00
2023-04-13T06:26:43.092Z,2431.00
2023-04-13T06:27:43.108Z,2440.00
2023-04-13T06:28:43.130Z,2451.00
2023-04-13T06:29:43.206Z,2465.00
2023-04-13T06:30:43.215Z,2473.00
2023-04-13T06:31:43.235Z,2504.00
2023-04-13T06:32:43.298Z,2577.00
2023-04-13T06:33:44.196Z,2583.00
2023-04-13T06:34:43.282Z,2612.00
2023-04-13T06:35:43.308Z,2637.00
2023-04-13T06:36:43.688Z,2726.00
2023-04-13T06:37:43.356Z,2641.00
2023-04-13T06:38:43.361Z,2012.00
2023-04-13T06:39:43.447Z,1624.00
2023-04-13T06:40:43.455Z,1480.00
2023-04-13T06:41:43.487Z,1466.00
2023-04-13T06:42:43.480Z,1487.00
2023-04-13T06:43:43.468Z,1581.00
2023-04-13T06:44:43.499Z,1600.00
2023-04-13T06:45:43.491Z,1634.00
2023-04-13T06:46:43.599Z,1665.00
2023-04-13T06:47:43.644Z,1747.00
2023-04-13T06:48:43.561Z,1756.00
2023-04-13T06:49:43.637Z,1796.00
2023-04-13T06:50:43.594Z,1818.00
2023-04-13T06:51:43.700Z,1849.00
2023-04-13T06:52:43.619Z,1870.00
2023-04-13T06:53:43.662Z,1941.00
2023-04-13T06:54:43.745Z,1969.00
2023-04-13T06:55:43.671Z,1995.00
2023-04-13T06:56:44.192Z,2065.00
2023-04-13T06:57:43.772Z,2089.00
2023-04-13T06:58:43.736Z,2106.00
2023-04-13T06:59:43.764Z,2138.00
2023-04-13T07:00:43.793Z,2178.00
2023-04-13T07:01:43.851Z,2220.00
2023-04-13T07:02:43.935Z,2297.00
2023-04-13T07:03:44.128Z,2393.00
2023-04-13T07:04:43.919Z,2389.00
2023-04-13T07:05:43.838Z,2403.00
2023-04-13T07:06:43.781Z,2432.00
2023-04-13T07:07:43.789Z,2453.00
2023-04-13T07:08:43.785Z,2473.00
2023-04-13T07:09:43.782Z,2489.00
2023-04-13T07:10:43.784Z,2525.00
2023-04-13T07:11:43.795Z,2593.00
2023-04-13T07:12:44.201Z,2630.00
2023-04-13T07:13:44.723Z,2641.00
2023-04-13T07:14:43.937Z,2659.00
2023-04-13T07:15:44.022Z,2686.00
2023-04-13T07:16:43.787Z,2708.00
2023-04-13T07:17:44.302Z,2706.00
2023-04-13T07:18:43.776Z,2710.00
2023-04-13T07:19:43.822Z,2726.00
2023-04-13T07:20:43.842Z,2743.00
2023-04-13T07:21:43.886Z,2737.00
2023-04-13T07:22:43.766Z,2873.00
2023-04-13T07:23:43.734Z,2880.00
2023-04-13T07:24:43.762Z,2891.00
2023-04-13T07:25:43.771Z,2884.00
2023-04-13T07:26:44.225Z,2941.00
2023-04-13T07:27:44.286Z,2970.00
2023-04-13T07:28:44.005Z,2986.00
2023-04-13T07:29:43.766Z,2990.00
2023-04-13T07:30:43.733Z,3092.00
2023-04-13T07:31:43.887Z,3103.00
2023-04-13T07:32:45.759Z,3128.00
2023-04-13T07:33:43.822Z,3142.00
2023-04-13T07:34:43.917Z,3238.00
2023-04-13T07:35:43.921Z,3202.00
2023-04-13T07:36:43.873Z,3139.00
2023-04-13T07:37:44.271Z,3114.00
2023-04-13T07:38:43.856Z,3093.00
2023-04-13T07:39:43.852Z,3078.00
2023-04-13T07:40:43.861Z,2948.00
2023-04-13T07:41:44.780Z,2920.00
2023-04-13T07:42:44.731Z,2954.00
2023-04-13T07:43:43.933Z,2964.00
2023-04-13T07:44:43.968Z,2957.00
2023-04-13T07:45:43.890Z,2955.00
2023-04-13T07:46:43.980Z,2949.00
2023-04-13T07:47:43.938Z,2939.00
2023-04-13T07:48:44.797Z,2934.00
2023-04-13T07:49:43.911Z,2924.00
2023-04-13T07:50:43.916Z,2919.00
2023-04-13T07:51:44.325Z,2915.00
2023-04-13T07:52:44.238Z,2909.00
2023-04-13T07:53:43.960Z,2906.00
2023-04-13T07:54:43.993Z,2897.00
2023-04-13T07:55:43.981Z,2898.00
2023-04-13T07:56:44.190Z,2895.00
2023-04-13T07:57:44.030Z,2888.00
2023-04-13T07:58:44.033Z,2882.00
2023-04-13T07:59:44.068Z,2883.00
2023-04-13T08:00:44.223Z,2880.00
2023-04-13T08:01:44.146Z,2874.00
2023-04-13T08:02:44.277Z,2873.00
2023-04-13T08:03:44.314Z,2872.00
2023-04-13T08:04:44.314Z,2869.00
2023-04-13T08:05:46.892Z,2866.00
2023-04-13T08:06:44.236Z,2868.00
2023-04-13T08:07:44.175Z,2868.00
2023-04-13T08:08:44.190Z,2864.00
2023-04-13T08:09:44.177Z,2854.00
2023-04-13T08:10:44.164Z,2854.00
2023-04-13T08:11:44.178Z,2852.00
2023-04-13T08:12:44.186Z,2851.00
2023-04-13T08:13:44.144Z,2848.00
2023-04-13T08:14:44.190Z,2842.00
2023-04-13T08:15:44.148Z,2838.00
2023-04-13T08:16:44.185Z,2832.00
2023-04-13T08:17:44.259Z,2841.00
2023-04-13T08:18:44.224Z,2884.00
2023-04-13T08:19:44.161Z,2906.00
2023-04-13T08:20:44.090Z,2833.00
2023-04-13T08:21:44.106Z,2226.00
2023-04-13T08:22:44.309Z,1531.00
2023-04-13T08:23:44.114Z,1260.00
2023-04-13T08:24:44.153Z,1264.00
2023-04-13T08:25:44.094Z,1259.00
2023-04-13T08:26:44.074Z,1060.00
2023-04-13T08:27:44.243Z,926.00
2023-04-13T08:28:44.100Z,884.00
2023-04-13T08:29:44.080Z,804.00
2023-04-13T08:30:44.092Z,771.00
2023-04-13T08:31:44.064Z,750.00
2023-04-13T08:32:44.294Z,687.00
2023-04-13T08:33:44.740Z,653.00
2023-04-13T08:34:44.035Z,619.00
2023-04-13T08:35:44.098Z,593.00
2023-04-13T08:36:44.150Z,546.00
2023-04-13T08:37:44.251Z,523.00
2023-04-13T08:38:44.007Z,508.00
2023-04-13T08:39:43.999Z,495.00
2023-04-13T08:40:44.761Z,483.00
2023-04-13T08:41:44.112Z,473.00
2023-04-13T08:42:44.285Z,594.00
2023-04-13T08:43:44.015Z,765.00
2023-04-13T08:44:44.024Z,1022.00
2023-04-13T08:45:44.064Z,1043.00
2023-04-13T08:46:43.919Z,1082.00
2023-04-13T08:47:44.020Z,1090.00
2023-04-13T08:48:53.677Z,1135.00
2023-04-13T08:49:44.923Z,1149.00
2023-04-13T08:50:43.912Z,1097.00
2023-04-13T08:51:43.979Z,1121.00
2023-04-13T08:52:44.268Z,1172.00
2023-04-13T08:53:43.876Z,1179.00
2023-04-13T08:54:43.892Z,1182.00
2023-04-13T08:55:43.931Z,1189.00
2023-04-13T08:56:46.663Z,1195.00
2023-04-13T08:57:44.251Z,1196.00
2023-04-13T08:58:43.853Z,1192.00
2023-04-13T08:59:43.838Z,1185.00
2023-04-13T09:00:43.863Z,1180.00
2023-04-13T09:01:43.947Z,1173.00
2023-04-13T09:02:56.196Z,1166.00
2023-04-13T09:03:44.996Z,1176.00
2023-04-13T09:04:44.049Z,1192.00
2023-04-13T09:05:43.915Z,1148.00
2023-04-13T09:06:43.980Z,1214.00
2023-04-13T09:07:44.295Z,1195.00
2023-04-13T09:08:44.756Z,1162.00
2023-04-13T09:09:44.183Z,1149.00
2023-04-13T09:10:44.191Z,1138.00
2023-04-13T09:11:44.267Z,1132.00
2023-04-13T09:12:44.736Z,1131.00
2023-04-13T09:13:44.386Z,1142.00
2023-04-13T09:14:45.280Z,1145.00
2023-04-13T09:15:44.626Z,1145.00
2023-04-13T09:16:44.583Z,1145.00
2023-04-13T09:17:44.653Z,1147.00
2023-04-13T09:18:44.747Z,1152.00
2023-04-13T09:19:44.772Z,1150.00
2023-04-13T09:20:44.774Z,1154.00
2023-04-13T09:21:44.936Z,1155.00
2023-04-13T09:22:44.968Z,1161.00
2023-04-13T09:23:44.951Z,1166.00
2023-04-13T09:24:44.971Z,1174.00
2023-04-13T09:25:45.031Z,1186.00
2023-04-13T09:26:45.055Z,1189.00
2023-04-13T09:27:45.134Z,1197.00
2023-04-13T09:28:45.140Z,1205.00
2023-04-13T09:29:45.265Z,1220.00
2023-04-13T09:30:45.272Z,1226.00
2023-04-13T09:31:45.852Z,1233.00
2023-04-13T09:32:45.820Z,1246.00
2023-04-13T09:33:45.401Z,1307.00
2023-04-13T09:34:45.407Z,1343.00
2023-04-13T09:35:45.527Z,1213.00
2023-04-13T09:36:54.000Z,1236.00
2023-04-13T09:37:46.793Z,1241.00
2023-04-13T09:38:45.497Z,1257.00
2023-04-13T09:39:45.463Z,1293.00
2023-04-13T09:40:45.423Z,1303.00
2023-04-13T09:41:45.431Z,1301.00
2023-04-13T09:42:45.825Z,1289.00
2023-04-13T09:43:45.836Z,1279.00
2023-04-13T09:44:45.440Z,1267.00
2023-04-13T09:45:45.409Z,1256.00
2023-04-13T09:46:45.407Z,1224.00
2023-04-13T09:47:45.447Z,1211.00
2023-04-13T09:48:45.386Z,1199.00
2023-04-13T09:49:45.390Z,1194.00
2023-04-13T09:50:45.444Z,1197.00
2023-04-13T09:51:45.419Z,1200.00
2023-04-13T09:52:45.799Z,1201.00
2023-04-13T09:53:45.516Z,1204.00
2023-04-13T09:54:48.282Z,1208.00
2023-04-13T09:55:45.553Z,1223.00
2023-04-13T09:56:45.517Z,1243.00
2023-04-13T09:57:45.544Z,1264.00
2023-04-13T09:58:45.549Z,1312.00
2023-04-13T09:59:45.515Z,1337.00
2023-04-13T10:00:45.500Z,1383.00
2023-04-13T10:01:45.573Z,1395.00
2023-04-13T10:02:45.767Z,1393.00
2023-04-13T10:03:45.560Z,1434.00
2023-04-13T10:04:45.496Z,1448.00
2023-04-13T10:05:58.900Z,1461.00
2023-04-13T10:06:46.491Z,1520.00
2023-04-13T10:07:45.459Z,1509.00
2023-04-13T10:08:45.477Z,1490.00
2023-04-13T10:09:45.448Z,1494.00
2023-04-13T10:10:45.531Z,1512.00
2023-04-13T10:11:45.478Z,1557.00
2023-04-13T10:12:45.396Z,1565.00
2023-04-13T10:13:45.420Z,1567.00
2023-04-13T10:14:45.400Z,1583.00
2023-04-13T10:15:45.416Z,1609.00
2023-04-13T10:16:45.475Z,1631.00
2023-04-13T10:17:45.504Z,1648.00
2023-04-13T10:18:45.467Z,1668.00
2023-04-13T10:19:45.380Z,1701.00
2023-04-13T10:20:45.353Z,1779.00
2023-04-13T10:21:45.425Z,1788.00
2023-04-13T10:22:45.350Z,1796.00
2023-04-13T10:23:45.352Z,1804.00
2023-04-13T10:24:45.318Z,1884.00
2023-04-13T10:25:45.342Z,1896.00
2023-04-13T10:26:45.316Z,1948.00
2023-04-13T10:27:45.360Z,1926.00
2023-04-13T10:28:45.319Z,1889.00
2023-04-13T10:29:45.335Z,1736.00
2023-04-13T10:30:45.340Z,1755.00
2023-04-13T10:31:45.341Z,1723.00
2023-04-13T10:32:45.409Z,1674.00
2023-04-13T10:33:45.343Z,1643.00
2023-04-13T10:34:45.246Z,1630.00
2023-04-13T10:35:45.273Z,1625.00
2023-04-13T10:36:45.276Z,1620.00
2023-04-13T10:37:45.824Z,1614.00
2023-04-13T10:38:45.289Z,1608.00
2023-04-13T10:39:45.342Z,1597.00
2023-04-13T10:40:45.321Z,1591.00
2023-04-13T10:41:45.378Z,1579.00
2023-04-13T10:43:45.378Z,1569.00
2023-04-13T10:44:45.327Z,1564.00
2023-04-13T10:45:45.363Z,1560.00
2023-04-13T10:46:45.343Z,1561.00
2023-04-13T10:47:45.806Z,1561.00
2023-04-13T10:48:45.300Z,1557.00
2023-04-13T10:49:45.328Z,1555.00
2023-04-13T10:50:45.294Z,1551.00
2023-04-13T10:51:45.302Z,1549.00
2023-04-13T10:52:45.278Z,1548.00
2023-04-13T10:53:45.399Z,1551.00
2023-04-13T10:54:45.423Z,1547.00
2023-04-13T10:55:45.273Z,1546.00
2023-04-13T10:56:45.240Z,1546.00
2023-04-13T10:57:45.268Z,1547.00
2023-04-13T10:58:45.248Z,1547.00
2023-04-13T10:59:57.237Z,1545.00
2023-04-13T11:00:47.139Z,1541.00
2023-04-13T11:01:45.266Z,1533.00
2023-04-13T11:02:45.419Z,1533.00
2023-04-13T11:04:00.745Z,1534.00
2023-04-13T11:04:46.329Z,1533.00
2023-04-13T11:05:45.212Z,1533.00
2023-04-13T11:06:45.163Z,1531.00
2023-04-13T11:07:45.192Z,1528.00
2023-04-13T11:08:48.477Z,1523.00
2023-04-13T11:09:46.207Z,1524.00
2023-04-13T11:10:45.165Z,1525.00
2023-04-13T11:11:45.151Z,1528.00
2023-04-13T11:12:45.130Z,1527.00
2023-04-13T11:13:45.128Z,1525.00
2023-04-13T11:14:45.133Z,1522.00
2023-04-13T11:15:45.144Z,1521.00
2023-04-13T11:16:45.251Z,1524.00
2023-04-13T11:17:45.147Z,1521.00
2023-04-13T11:18:45.109Z,1517.00
2023-04-13T11:19:49.813Z,1517.00
2023-04-13T11:20:46.168Z,1517.00
2023-04-13T11:21:45.076Z,1519.00
2023-04-13T11:22:47.415Z,1521.00
2023-04-13T11:23:45.285Z,1521.00
2023-04-13T11:24:45.356Z,1520.00
2023-04-13T11:25:45.387Z,1515.00
2023-04-13T11:26:45.453Z,1512.00
2023-04-13T11:27:45.521Z,1510.00
2023-04-13T11:28:45.538Z,1513.00
2023-04-13T11:29:45.825Z,1514.00
2023-04-13T11:30:45.644Z,1516.00
2023-04-13T11:31:45.704Z,1517.00
2023-04-13T11:32:45.810Z,1512.00
2023-04-13T11:33:45.776Z,1512.00
2023-04-13T11:34:45.797Z,1507.00
2023-04-13T11:35:49.787Z,1510.00
2023-04-13T11:36:45.845Z,1506.00
2023-04-13T11:37:45.826Z,1503.00
2023-04-13T11:38:45.876Z,1502.00
2023-04-13T11:39:45.828Z,1508.00
2023-04-13T11:40:45.809Z,1506.00
2023-04-13T11:41:45.776Z,1504.00
2023-04-13T11:42:45.792Z,1502.00
2023-04-13T11:43:45.984Z,1504.00
2023-04-13T11:44:45.821Z,1507.00
2023-04-13T11:45:45.807Z,1508.00
2023-04-13T11:46:45.840Z,1510.00
2023-04-13T11:47:45.771Z,1512.00
2023-04-13T11:48:45.879Z,1516.00
2023-04-13T11:49:45.781Z,1518.00
2023-04-13T11:50:45.744Z,1513.00
2023-04-13T11:51:45.741Z,1512.00
2023-04-13T11:52:45.744Z,1512.00
2023-04-13T11:53:45.713Z,1507.00
2023-04-13T11:54:45.709Z,1504.00
2023-04-13T11:55:52.902Z,1504.00
2023-04-13T11:56:48.403Z,1504.00
2023-04-13T11:57:45.672Z,1505.00
2023-04-13T11:58:45.685Z,1505.00
2023-04-13T11:59:45.739Z,1505.00
2023-04-13T12:00:45.676Z,1505.00
2023-04-13T12:01:50.231Z,1504.00
2023-04-13T12:03:00.405Z,1501.00
2023-04-13T12:04:45.782Z,1501.00
2023-04-13T12:05:45.756Z,1498.00
2023-04-13T12:06:46.447Z,1500.00
2023-04-13T12:07:45.827Z,1501.00
2023-04-13T12:08:47.820Z,1499.00
2023-04-13T12:10:58.433Z,1494.00
2023-04-13T12:11:50.137Z,1494.00
2023-04-13T12:12:54.632Z,1494.00
2023-04-13T12:14:03.479Z,1496.00
2023-04-13T12:14:54.553Z,1493.00
2023-04-13T12:16:02.328Z,1488.00
2023-04-13T12:17:03.875Z,1488.00
2023-04-13T12:17:49.896Z,1486.00
2023-04-13T12:18:47.328Z,1484.00
2023-04-13T12:19:46.287Z,1482.00